sensor_id;sensor_type;location;lat;lon;timestamp;P1;durP1;ratioP1;P2;durP2;ratioP2
19163;SDS011;9714;51.208;4.242;2023-04-03T00:02:10;13.20;;;5.07;;
19163;SDS011;9714;51.208;4.242;2023-04-03T00:04:41;12.97;;;4.17;;
19163;SDS011;9714;51.208;4.242;2023-04-03T00:07:12;11.43;;;3.73;;
19163;SDS011;9714;51.208;4.242;2023-04-03T00:09:40;10.37;;;4.40;;
19163;SDS011;9714;51.208;4.242;2023-04-03T00:12:16;13.27;;;4.13;;
19163;SDS011;9714;51.208;4.242;2023-04-03T00:14:47;16.77;;;4.20;;
19163;SDS011;9714;51.208;4.242;2023-04-03T00:17:14;13.87;;;4.50;;
19163;SDS011;9714;51.208;4.242;2023-04-03T00:19:56;14.30;;;4.53;;
19163;SDS011;9714;51.208;4.242;2023-04-03T00:22:31;10.93;;;4.63;;
19163;SDS011;9714;51.208;4.242;2023-04-03T00:25:05;9.60;;;3.87;;
19163;SDS011;9714;51.208;4.242;2023-04-03T00:27:35;14.47;;;5.93;;
19163;SDS011;9714;51.208;4.242;2023-04-03T03:00:11;14.87;;;5.40;;
19163;SDS011;9714;51.208;4.242;2023-04-03T03:02:39;13.10;;;5.67;;
19163;SDS011;9714;51.208;4.242;2023-04-03T03:05:07;14.00;;;5.47;;
19163;SDS011;9714;51.208;4.242;2023-04-03T03:07:34;17.33;;;6.03;;
19163;SDS011;9714;51.208;4.242;2023-04-03T03:10:01;16.27;;;5.80;;
19163;SDS011;9714;51.208;4.242;2023-04-03T03:12:28;18.70;;;6.03;;
19163;SDS011;9714;51.208;4.242;2023-04-03T03:14:55;14.13;;;6.03;;
19163;SDS011;9714;51.208;4.242;2023-04-03T03:17:30;15.10;;;5.87;;
19163;SDS011;9714;51.208;4.242;2023-04-03T03:20:24;16.57;;;6.27;;
19163;SDS011;9714;51.208;4.242;2023-04-03T03:23:16;15.80;;;6.20;;
19163;SDS011;9714;51.208;4.242;2023-04-03T03:26:13;14.00;;;6.20;;
19163;SDS011;9714;51.208;4.242;2023-04-03T03:40:14;15.87;;;5.93;;
19163;SDS011;9714;51.208;4.242;2023-04-03T03:42:50;17.53;;;7.07;;
19163;SDS011;9714;51.208;4.242;2023-04-03T03:45:19;17.37;;;6.97;;
19163;SDS011;9714;51.208;4.242;2023-04-03T03:47:52;15.90;;;6.93;;
19163;SDS011;9714;51.208;4.242;2023-04-03T03:51:11;14.77;;;7.23;;
19163;SDS011;9714;51.208;4.242;2023-04-03T03:53:38;16.83;;;6.73;;
19163;SDS011;9714;51.208;4.242;2023-04-03T03:56:06;16.63;;;7.17;;
19163;SDS011;9714;51.208;4.242;2023-04-03T03:58:33;13.47;;;7.03;;
19163;SDS011;9714;51.208;4.242;2023-04-03T04:01:01;16.07;;;7.10;;
19163;SDS011;9714;51.208;4.242;2023-04-03T04:03:28;14.33;;;7.00;;
19163;SDS011;9714;51.208;4.242;2023-04-03T04:05:55;14.83;;;7.20;;
19163;SDS011;9714;51.208;4.242;2023-04-03T04:08:22;17.53;;;6.77;;
19163;SDS011;9714;51.208;4.242;2023-04-03T04:10:50;13.93;;;7.07;;
19163;SDS011;9714;51.208;4.242;2023-04-03T04:13:19;15.93;;;7.13;;
19163;SDS011;9714;51.208;4.242;2023-04-03T04:15:54;15.83;;;6.80;;
19163;SDS011;9714;51.208;4.242;2023-04-03T04:18:26;17.47;;;7.43;;
19163;SDS011;9714;51.208;4.242;2023-04-03T04:20:53;15.63;;;7.83;;
19163;SDS011;9714;51.208;4.242;2023-04-03T04:23:20;14.70;;;7.73;;
19163;SDS011;9714;51.208;4.242;2023-04-03T04:25:48;17.53;;;8.93;;
19163;SDS011;9714;51.208;4.242;2023-04-03T04:28:15;17.67;;;8.50;;
19163;SDS011;9714;51.208;4.242;2023-04-03T04:30:44;17.20;;;8.20;;
19163;SDS011;9714;51.208;4.242;2023-04-03T04:33:12;26.90;;;8.43;;
19163;SDS011;9714;51.208;4.242;2023-04-03T04:39:02;17.67;;;7.67;;
19163;SDS011;9714;51.208;4.242;2023-04-03T04:41:30;18.60;;;8.97;;
19163;SDS011;9714;51.208;4.242;2023-04-03T04:43:57;19.33;;;7.90;;
19163;SDS011;9714;51.208;4.242;2023-04-03T04:46:26;16.37;;;7.87;;
19163;SDS011;9714;51.208;4.242;2023-04-03T04:48:56;14.77;;;7.50;;
19163;SDS011;9714;51.208;4.242;2023-04-03T04:51:23;18.47;;;8.03;;
19163;SDS011;9714;51.208;4.242;2023-04-03T04:53:50;16.47;;;7.73;;
19163;SDS011;9714;51.208;4.242;2023-04-03T04:56:18;17.70;;;8.10;;
19163;SDS011;9714;51.208;4.242;2023-04-03T04:58:53;19.70;;;8.13;;
19163;SDS011;9714;51.208;4.242;2023-04-03T05:01:25;15.93;;;7.53;;
19163;SDS011;9714;51.208;4.242;2023-04-03T05:04:14;19.70;;;7.97;;
19163;SDS011;9714;51.208;4.242;2023-04-03T05:06:52;15.37;;;7.83;;
19163;SDS011;9714;51.208;4.242;2023-04-03T05:09:19;15.87;;;8.10;;
19163;SDS011;9714;51.208;4.242;2023-04-03T05:11:46;16.20;;;8.07;;
19163;SDS011;9714;51.208;4.242;2023-04-03T05:14:13;21.77;;;8.40;;
19163;SDS011;9714;51.208;4.242;2023-04-03T05:16:42;16.77;;;8.30;;
19163;SDS011;9714;51.208;4.242;2023-04-03T05:19:09;16.57;;;8.50;;
19163;SDS011;9714;51.208;4.242;2023-04-03T05:21:36;19.00;;;8.80;;
19163;SDS011;9714;51.208;4.242;2023-04-03T05:24:03;16.40;;;8.50;;
19163;SDS011;9714;51.208;4.242;2023-04-03T05:26:34;21.43;;;8.47;;
19163;SDS011;9714;51.208;4.242;2023-04-03T05:29:01;18.50;;;8.37;;
19163;SDS011;9714;51.208;4.242;2023-04-03T05:31:28;17.77;;;8.30;;
19163;SDS011;9714;51.208;4.242;2023-04-03T05:33:57;19.77;;;8.20;;
19163;SDS011;9714;51.208;4.242;2023-04-03T05:36:25;16.53;;;7.90;;
19163;SDS011;9714;51.208;4.242;2023-04-03T05:38:54;16.30;;;8.37;;
19163;SDS011;9714;51.208;4.242;2023-04-03T05:41:22;18.63;;;8.90;;
19163;SDS011;9714;51.208;4.242;2023-04-03T05:44:00;16.60;;;8.30;;
19163;SDS011;9714;51.208;4.242;2023-04-03T05:46:52;15.23;;;8.03;;
19163;SDS011;9714;51.208;4.242;2023-04-03T05:49:49;15.13;;;7.97;;
19163;SDS011;9714;51.208;4.242;2023-04-03T05:52:37;18.10;;;8.60;;
19163;SDS011;9714;51.208;4.242;2023-04-03T05:55:24;20.93;;;8.63;;
19163;SDS011;9714;51.208;4.242;2023-04-03T05:58:11;17.33;;;8.37;;
19163;SDS011;9714;51.208;4.242;2023-04-03T06:00:39;16.40;;;8.10;;
19163;SDS011;9714;51.208;4.242;2023-04-03T06:03:07;15.10;;;7.77;;
19163;SDS011;9714;51.208;4.242;2023-04-03T06:05:35;18.93;;;7.93;;
19163;SDS011;9714;51.208;4.242;2023-04-03T06:08:03;19.40;;;8.20;;
19163;SDS011;9714;51.208;4.242;2023-04-03T06:10:30;19.17;;;8.33;;
19163;SDS011;9714;51.208;4.242;2023-04-03T06:12:58;17.93;;;8.10;;
19163;SDS011;9714;51.208;4.242;2023-04-03T06:15:26;16.40;;;8.83;;
19163;SDS011;9714;51.208;4.242;2023-04-03T06:17:54;14.93;;;7.73;;
19163;SDS011;9714;51.208;4.242;2023-04-03T06:20:21;14.80;;;7.97;;
19163;SDS011;9714;51.208;4.242;2023-04-03T06:22:50;15.40;;;7.20;;
19163;SDS011;9714;51.208;4.242;2023-04-03T06:25:17;19.47;;;7.37;;
19163;SDS011;9714;51.208;4.242;2023-04-03T06:27:46;14.67;;;7.93;;
19163;SDS011;9714;51.208;4.242;2023-04-03T06:30:13;17.63;;;7.90;;
19163;SDS011;9714;51.208;4.242;2023-04-03T06:32:41;17.23;;;8.13;;
19163;SDS011;9714;51.208;4.242;2023-04-03T06:35:09;15.20;;;7.90;;
19163;SDS011;9714;51.208;4.242;2023-04-03T06:40:47;16.73;;;7.87;;
19163;SDS011;9714;51.208;4.242;2023-04-03T06:44:04;13.87;;;7.30;;
19163;SDS011;9714;51.208;4.242;2023-04-03T06:47:28;15.60;;;7.60;;
19163;SDS011;9714;51.208;4.242;2023-04-03T06:50:58;14.17;;;6.20;;
19163;SDS011;9714;51.208;4.242;2023-04-03T06:57:56;17.23;;;6.13;;
19163;SDS011;9714;51.208;4.242;2023-04-03T07:01:03;12.83;;;5.07;;
19163;SDS011;9714;51.208;4.242;2023-04-03T07:04:23;10.03;;;4.53;;
19163;SDS011;9714;51.208;4.242;2023-04-03T07:07:18;13.27;;;4.20;;
19163;SDS011;9714;51.208;4.242;2023-04-03T07:10:37;19.03;;;4.93;;
19163;SDS011;9714;51.208;4.242;2023-04-03T07:31:03;12.50;;;3.57;;
19163;SDS011;9714;51.208;4.242;2023-04-03T07:37:03;13.37;;;3.33;;
19163;SDS011;9714;51.208;4.242;2023-04-03T07:40:04;12.00;;;3.63;;
19163;SDS011;9714;51.208;4.242;2023-04-03T07:42:39;13.07;;;3.40;;
19163;SDS011;9714;51.208;4.242;2023-04-03T07:46:12;13.43;;;3.40;;
19163;SDS011;9714;51.208;4.242;2023-04-03T07:48:56;12.43;;;3.73;;
19163;SDS011;9714;51.208;4.242;2023-04-03T07:52:34;14.07;;;3.77;;
19163;SDS011;9714;51.208;4.242;2023-04-03T08:02:23;12.33;;;3.60;;
19163;SDS011;9714;51.208;4.242;2023-04-03T08:05:05;12.83;;;3.63;;
19163;SDS011;9714;51.208;4.242;2023-04-03T08:07:32;11.97;;;3.57;;
19163;SDS011;9714;51.208;4.242;2023-04-03T08:10:00;9.37;;;3.00;;
19163;SDS011;9714;51.208;4.242;2023-04-03T08:12:29;10.27;;;3.40;;
19163;SDS011;9714;51.208;4.242;2023-04-03T08:15:00;13.33;;;3.37;;
19163;SDS011;9714;51.208;4.242;2023-04-03T08:17:41;11.40;;;3.00;;
19163;SDS011;9714;51.208;4.242;2023-04-03T08:20:09;16.30;;;3.50;;
19163;SDS011;9714;51.208;4.242;2023-04-03T08:22:37;11.40;;;3.03;;
19163;SDS011;9714;51.208;4.242;2023-04-03T08:25:05;12.13;;;3.70;;
19163;SDS011;9714;51.208;4.242;2023-04-03T08:27:33;10.40;;;2.83;;
19163;SDS011;9714;51.208;4.242;2023-04-03T08:30:00;10.53;;;2.87;;
19163;SDS011;9714;51.208;4.242;2023-04-03T08:32:32;9.93;;;3.00;;
19163;SDS011;9714;51.208;4.242;2023-04-03T08:35:03;12.20;;;3.67;;
19163;SDS011;9714;51.208;4.242;2023-04-03T08:37:31;8.50;;;2.83;;
19163;SDS011;9714;51.208;4.242;2023-04-03T08:40:01;10.83;;;3.23;;
19163;SDS011;9714;51.208;4.242;2023-04-03T08:42:34;10.80;;;2.27;;
19163;SDS011;9714;51.208;4.242;2023-04-03T08:45:08;11.23;;;2.73;;
19163;SDS011;9714;51.208;4.242;2023-04-03T08:47:40;10.83;;;2.60;;
19163;SDS011;9714;51.208;4.242;2023-04-03T08:50:14;9.47;;;2.60;;
19163;SDS011;9714;51.208;4.242;2023-04-03T08:52:45;12.60;;;2.80;;
19163;SDS011;9714;51.208;4.242;2023-04-03T08:55:20;10.63;;;3.00;;
19163;SDS011;9714;51.208;4.242;2023-04-03T08:57:56;9.30;;;2.47;;
19163;SDS011;9714;51.208;4.242;2023-04-03T09:00:27;11.90;;;2.33;;
19163;SDS011;9714;51.208;4.242;2023-04-03T09:02:57;12.13;;;2.30;;
19163;SDS011;9714;51.208;4.242;2023-04-03T09:05:32;9.03;;;2.20;;
19163;SDS011;9714;51.208;4.242;2023-04-03T09:08:12;10.97;;;2.60;;
19163;SDS011;9714;51.208;4.242;2023-04-03T09:10:47;7.13;;;1.60;;
19163;SDS011;9714;51.208;4.242;2023-04-03T09:13:21;8.60;;;2.07;;
19163;SDS011;9714;51.208;4.242;2023-04-03T09:15:53;10.13;;;2.10;;
19163;SDS011;9714;51.208;4.242;2023-04-03T09:18:23;7.60;;;1.93;;
19163;SDS011;9714;51.208;4.242;2023-04-03T09:20:58;12.43;;;2.40;;
19163;SDS011;9714;51.208;4.242;2023-04-03T09:23:33;7.17;;;1.57;;
19163;SDS011;9714;51.208;4.242;2023-04-03T09:26:05;12.10;;;2.80;;
19163;SDS011;9714;51.208;4.242;2023-04-03T09:28:37;10.77;;;2.40;;
19163;SDS011;9714;51.208;4.242;2023-04-03T09:31:11;7.43;;;1.70;;
19163;SDS011;9714;51.208;4.242;2023-04-03T09:33:48;5.90;;;1.50;;
19163;SDS011;9714;51.208;4.242;2023-04-03T09:39:11;9.57;;;2.00;;
19163;SDS011;9714;51.208;4.242;2023-04-03T09:41:40;6.80;;;2.27;;
19163;SDS011;9714;51.208;4.242;2023-04-03T09:44:19;8.43;;;2.10;;
19163;SDS011;9714;51.208;4.242;2023-04-03T09:46:47;13.03;;;2.87;;
19163;SDS011;9714;51.208;4.242;2023-04-03T09:49:15;9.40;;;2.23;;
19163;SDS011;9714;51.208;4.242;2023-04-03T09:51:44;9.00;;;2.10;;
19163;SDS011;9714;51.208;4.242;2023-04-03T09:54:25;9.03;;;2.00;;
19163;SDS011;9714;51.208;4.242;2023-04-03T09:57:06;7.83;;;1.60;;
19163;SDS011;9714;51.208;4.242;2023-04-03T09:59:37;8.33;;;1.87;;
19163;SDS011;9714;51.208;4.242;2023-04-03T10:02:21;6.47;;;1.70;;
19163;SDS011;9714;51.208;4.242;2023-04-03T10:04:54;5.53;;;1.63;;
19163;SDS011;9714;51.208;4.242;2023-04-03T10:07:27;10.03;;;2.13;;
19163;SDS011;9714;51.208;4.242;2023-04-03T10:09:57;8.83;;;1.67;;
19163;SDS011;9714;51.208;4.242;2023-04-03T10:12:25;7.43;;;2.23;;
19163;SDS011;9714;51.208;4.242;2023-04-03T10:14:55;7.13;;;2.13;;
19163;SDS011;9714;51.208;4.242;2023-04-03T10:17:26;8.23;;;2.13;;
19163;SDS011;9714;51.208;4.242;2023-04-03T10:20:04;8.47;;;1.67;;
19163;SDS011;9714;51.208;4.242;2023-04-03T10:22:44;7.50;;;2.00;;
19163;SDS011;9714;51.208;4.242;2023-04-03T10:25:23;6.87;;;1.80;;
19163;SDS011;9714;51.208;4.242;2023-04-03T10:28:00;10.10;;;2.30;;
19163;SDS011;9714;51.208;4.242;2023-04-03T10:30:30;6.30;;;1.63;;
19163;SDS011;9714;51.208;4.242;2023-04-03T10:33:07;7.03;;;2.10;;
19163;SDS011;9714;51.208;4.242;2023-04-03T10:35:44;6.50;;;1.83;;
19163;SDS011;9714;51.208;4.242;2023-04-03T10:38:23;8.30;;;1.70;;
19163;SDS011;9714;51.208;4.242;2023-04-03T10:40:57;7.97;;;2.20;;
19163;SDS011;9714;51.208;4.242;2023-04-03T10:43:30;11.77;;;2.53;;
19163;SDS011;9714;51.208;4.242;2023-04-03T10:46:03;8.73;;;1.53;;
19163;SDS011;9714;51.208;4.242;2023-04-03T10:48:40;4.53;;;1.50;;
19163;SDS011;9714;51.208;4.242;2023-04-03T10:51:22;10.40;;;1.67;;
19163;SDS011;9714;51.208;4.242;2023-04-03T10:53:57;6.95;;;1.75;;
19163;SDS011;9714;51.208;4.242;2023-04-03T10:56:32;7.55;;;1.80;;
19163;SDS011;9714;51.208;4.242;2023-04-03T10:59:08;8.07;;;1.90;;
19163;SDS011;9714;51.208;4.242;2023-04-03T11:01:45;5.43;;;1.25;;
19163;SDS011;9714;51.208;4.242;2023-04-03T11:04:15;7.53;;;1.70;;
19163;SDS011;9714;51.208;4.242;2023-04-03T11:06:47;13.15;;;2.08;;
19163;SDS011;9714;51.208;4.242;2023-04-03T11:09:22;7.60;;;1.53;;
19163;SDS011;9714;51.208;4.242;2023-04-03T11:11:53;6.07;;;1.70;;
19163;SDS011;9714;51.208;4.242;2023-04-03T11:14:25;8.43;;;1.60;;
19163;SDS011;9714;51.208;4.242;2023-04-03T11:16:59;7.17;;;1.07;;
19163;SDS011;9714;51.208;4.242;2023-04-03T11:19:34;6.03;;;1.50;;
19163;SDS011;9714;51.208;4.242;2023-04-03T11:22:08;5.43;;;1.20;;
19163;SDS011;9714;51.208;4.242;2023-04-03T11:24:42;6.00;;;1.50;;
19163;SDS011;9714;51.208;4.242;2023-04-03T11:27:15;7.72;;;1.25;;
19163;SDS011;9714;51.208;4.242;2023-04-03T11:29:47;5.13;;;1.05;;
19163;SDS011;9714;51.208;4.242;2023-04-03T11:32:21;5.45;;;1.30;;
19163;SDS011;9714;51.208;4.242;2023-04-03T11:35:08;4.78;;;1.00;;
19163;SDS011;9714;51.208;4.242;2023-04-03T11:37:37;5.57;;;1.35;;
19163;SDS011;9714;51.208;4.242;2023-04-03T11:40:08;4.22;;;1.20;;
19163;SDS011;9714;51.208;4.242;2023-04-03T11:42:48;6.90;;;1.70;;
19163;SDS011;9714;51.208;4.242;2023-04-03T11:45:37;10.10;;;1.80;;
19163;SDS011;9714;51.208;4.242;2023-04-03T12:03:30;7.25;;;1.67;;
19163;SDS011;9714;51.208;4.242;2023-04-03T12:09:24;9.43;;;1.70;;
19163;SDS011;9714;51.208;4.242;2023-04-03T12:12:28;5.18;;;1.55;;
19163;SDS011;9714;51.208;4.242;2023-04-03T12:15:11;8.57;;;1.83;;
19163;SDS011;9714;51.208;4.242;2023-04-03T12:21:19;5.07;;;1.40;;
19163;SDS011;9714;51.208;4.242;2023-04-03T12:23:58;6.90;;;0.98;;
19163;SDS011;9714;51.208;4.242;2023-04-03T12:26:28;5.05;;;1.30;;
19163;SDS011;9714;51.208;4.242;2023-04-03T12:28:58;6.10;;;1.50;;
19163;SDS011;9714;51.208;4.242;2023-04-03T12:31:38;4.40;;;1.10;;
19163;SDS011;9714;51.208;4.242;2023-04-03T12:34:15;5.03;;;1.08;;
19163;SDS011;9714;51.208;4.242;2023-04-03T12:36:58;7.63;;;1.20;;
19163;SDS011;9714;51.208;4.242;2023-04-03T12:39:40;3.65;;;1.20;;
19163;SDS011;9714;51.208;4.242;2023-04-03T12:45:09;3.38;;;1.00;;
19163;SDS011;9714;51.208;4.242;2023-04-03T12:47:43;6.65;;;1.58;;
19163;SDS011;9714;51.208;4.242;2023-04-03T12:50:16;7.18;;;1.50;;
19163;SDS011;9714;51.208;4.242;2023-04-03T12:52:51;4.38;;;1.02;;
19163;SDS011;9714;51.208;4.242;2023-04-03T12:55:22;3.13;;;0.98;;
19163;SDS011;9714;51.208;4.242;2023-04-03T12:57:49;6.80;;;1.48;;
19163;SDS011;9714;51.208;4.242;2023-04-03T13:00:33;13.00;;;2.15;;
19163;SDS011;9714;51.208;4.242;2023-04-03T13:03:05;4.30;;;1.30;;
19163;SDS011;9714;51.208;4.242;2023-04-03T13:05:45;4.20;;;1.15;;
19163;SDS011;9714;51.208;4.242;2023-04-03T13:08:13;5.20;;;1.40;;
19163;SDS011;9714;51.208;4.242;2023-04-03T13:10:47;6.00;;;1.20;;
19163;SDS011;9714;51.208;4.242;2023-04-03T13:13:19;5.82;;;2.17;;
19163;SDS011;9714;51.208;4.242;2023-04-03T13:15:48;5.10;;;1.00;;
19163;SDS011;9714;51.208;4.242;2023-04-03T13:18:21;6.18;;;1.30;;
19163;SDS011;9714;51.208;4.242;2023-04-03T13:20:50;4.55;;;1.38;;
19163;SDS011;9714;51.208;4.242;2023-04-03T13:23:20;7.63;;;1.23;;
19163;SDS011;9714;51.208;4.242;2023-04-03T13:25:48;5.07;;;1.10;;
19163;SDS011;9714;51.208;4.242;2023-04-03T13:28:18;8.75;;;1.85;;
19163;SDS011;9714;51.208;4.242;2023-04-03T13:30:54;4.53;;;1.40;;
19163;SDS011;9714;51.208;4.242;2023-04-03T13:33:25;5.05;;;1.20;;
19163;SDS011;9714;51.208;4.242;2023-04-03T13:35:54;3.72;;;1.13;;
19163;SDS011;9714;51.208;4.242;2023-04-03T13:38:25;2.03;;;0.80;;
19163;SDS011;9714;51.208;4.242;2023-04-03T13:40:57;3.92;;;1.13;;
19163;SDS011;9714;51.208;4.242;2023-04-03T13:43:28;6.30;;;1.15;;
19163;SDS011;9714;51.208;4.242;2023-04-03T13:45:58;3.88;;;1.20;;
19163;SDS011;9714;51.208;4.242;2023-04-03T13:48:34;5.32;;;1.23;;
19163;SDS011;9714;51.208;4.242;2023-04-03T13:51:04;5.53;;;1.10;;
19163;SDS011;9714;51.208;4.242;2023-04-03T13:53:40;5.75;;;1.48;;
19163;SDS011;9714;51.208;4.242;2023-04-03T13:56:13;6.65;;;1.35;;
19163;SDS011;9714;51.208;4.242;2023-04-03T13:58:52;3.50;;;0.85;;
19163;SDS011;9714;51.208;4.242;2023-04-03T14:01:38;3.65;;;1.13;;
19163;SDS011;9714;51.208;4.242;2023-04-03T14:04:16;5.10;;;1.33;;
19163;SDS011;9714;51.208;4.242;2023-04-03T14:06:44;4.60;;;1.05;;
19163;SDS011;9714;51.208;4.242;2023-04-03T14:09:14;5.25;;;1.30;;
19163;SDS011;9714;51.208;4.242;2023-04-03T14:11:43;3.97;;;1.10;;
19163;SDS011;9714;51.208;4.242;2023-04-03T14:14:12;4.90;;;1.15;;
19163;SDS011;9714;51.208;4.242;2023-04-03T14:16:42;3.70;;;0.95;;
19163;SDS011;9714;51.208;4.242;2023-04-03T14:19:14;3.97;;;0.75;;
19163;SDS011;9714;51.208;4.242;2023-04-03T14:21:45;5.68;;;1.17;;
19163;SDS011;9714;51.208;4.242;2023-04-03T14:24:14;4.07;;;1.13;;
19163;SDS011;9714;51.208;4.242;2023-04-03T14:26:41;4.40;;;0.88;;
19163;SDS011;9714;51.208;4.242;2023-04-03T14:29:10;3.92;;;0.90;;
19163;SDS011;9714;51.208;4.242;2023-04-03T14:31:39;3.80;;;0.90;;
19163;SDS011;9714;51.208;4.242;2023-04-03T14:34:09;3.58;;;1.05;;
19163;SDS011;9714;51.208;4.242;2023-04-03T14:36:36;5.28;;;1.10;;
19163;SDS011;9714;51.208;4.242;2023-04-03T14:39:06;5.20;;;0.85;;
19163;SDS011;9714;51.208;4.242;2023-04-03T14:41:35;5.10;;;0.98;;
19163;SDS011;9714;51.208;4.242;2023-04-03T14:44:02;5.95;;;1.23;;
19163;SDS011;9714;51.208;4.242;2023-04-03T14:46:30;7.00;;;1.30;;
19163;SDS011;9714;51.208;4.242;2023-04-03T14:48:59;3.88;;;1.02;;
19163;SDS011;9714;51.208;4.242;2023-04-03T14:51:27;3.63;;;1.38;;
19163;SDS011;9714;51.208;4.242;2023-04-03T14:53:54;3.38;;;0.93;;
19163;SDS011;9714;51.208;4.242;2023-04-03T14:56:22;3.47;;;1.02;;
19163;SDS011;9714;51.208;4.242;2023-04-03T14:58:54;6.15;;;1.17;;
19163;SDS011;9714;51.208;4.242;2023-04-03T15:01:23;5.32;;;1.10;;
19163;SDS011;9714;51.208;4.242;2023-04-03T15:03:50;7.63;;;1.53;;
19163;SDS011;9714;51.208;4.242;2023-04-03T15:06:17;5.10;;;1.15;;
19163;SDS011;9714;51.208;4.242;2023-04-03T15:08:45;3.60;;;1.02;;
19163;SDS011;9714;51.208;4.242;2023-04-03T15:11:13;3.35;;;1.30;;
19163;SDS011;9714;51.208;4.242;2023-04-03T15:13:41;17.33;;;2.72;;
19163;SDS011;9714;51.208;4.242;2023-04-03T15:16:14;6.07;;;1.50;;
19163;SDS011;9714;51.208;4.242;2023-04-03T15:18:43;6.03;;;1.33;;
19163;SDS011;9714;51.208;4.242;2023-04-03T15:21:11;2.67;;;0.80;;
19163;SDS011;9714;51.208;4.242;2023-04-03T15:23:39;5.00;;;1.17;;
19163;SDS011;9714;51.208;4.242;2023-04-03T15:26:07;4.10;;;1.20;;
19163;SDS011;9714;51.208;4.242;2023-04-03T15:28:35;4.03;;;1.30;;
19163;SDS011;9714;51.208;4.242;2023-04-03T15:31:04;5.20;;;1.30;;
19163;SDS011;9714;51.208;4.242;2023-04-03T15:33:34;6.97;;;1.40;;
19163;SDS011;9714;51.208;4.242;2023-04-03T15:36:02;5.73;;;1.47;;
19163;SDS011;9714;51.208;4.242;2023-04-03T15:38:31;3.70;;;1.20;;
19163;SDS011;9714;51.208;4.242;2023-04-03T15:40:58;4.17;;;1.27;;
19163;SDS011;9714;51.208;4.242;2023-04-03T15:43:26;4.10;;;1.00;;
19163;SDS011;9714;51.208;4.242;2023-04-03T15:45:57;4.17;;;1.30;;
19163;SDS011;9714;51.208;4.242;2023-04-03T15:48:26;3.27;;;1.00;;
19163;SDS011;9714;51.208;4.242;2023-04-03T15:50:55;6.13;;;1.43;;
19163;SDS011;9714;51.208;4.242;2023-04-03T15:53:39;3.33;;;1.10;;
19163;SDS011;9714;51.208;4.242;2023-04-03T16:02:14;3.33;;;1.00;;
19163;SDS011;9714;51.208;4.242;2023-04-03T16:04:48;6.80;;;1.33;;
19163;SDS011;9714;51.208;4.242;2023-04-03T16:07:35;3.90;;;1.10;;
19163;SDS011;9714;51.208;4.242;2023-04-03T16:13:10;6.93;;;1.17;;
19163;SDS011;9714;51.208;4.242;2023-04-03T16:16:07;4.53;;;1.40;;
19163;SDS011;9714;51.208;4.242;2023-04-03T16:18:41;5.60;;;1.27;;
19163;SDS011;9714;51.208;4.242;2023-04-03T16:21:33;4.87;;;1.30;;
19163;SDS011;9714;51.208;4.242;2023-04-03T16:24:02;7.10;;;1.50;;
19163;SDS011;9714;51.208;4.242;2023-04-03T16:26:31;5.83;;;1.40;;
19163;SDS011;9714;51.208;4.242;2023-04-03T16:28:58;5.30;;;1.20;;
19163;SDS011;9714;51.208;4.242;2023-04-03T16:31:25;5.77;;;1.40;;
19163;SDS011;9714;51.208;4.242;2023-04-03T16:33:55;4.37;;;1.30;;
19163;SDS011;9714;51.208;4.242;2023-04-03T16:36:23;6.37;;;1.63;;
19163;SDS011;9714;51.208;4.242;2023-04-03T16:38:52;3.63;;;1.10;;
19163;SDS011;9714;51.208;4.242;2023-04-03T16:41:21;3.73;;;1.27;;
19163;SDS011;9714;51.208;4.242;2023-04-03T16:43:49;5.33;;;1.53;;
19163;SDS011;9714;51.208;4.242;2023-04-03T16:46:16;5.33;;;1.40;;
19163;SDS011;9714;51.208;4.242;2023-04-03T16:48:44;4.37;;;1.17;;
19163;SDS011;9714;51.208;4.242;2023-04-03T16:51:11;7.87;;;1.20;;
19163;SDS011;9714;51.208;4.242;2023-04-03T16:53:39;10.83;;;2.20;;
19163;SDS011;9714;51.208;4.242;2023-04-03T16:56:07;4.43;;;1.70;;
19163;SDS011;9714;51.208;4.242;2023-04-03T16:58:35;5.80;;;1.43;;
19163;SDS011;9714;51.208;4.242;2023-04-03T17:01:08;4.47;;;1.60;;
19163;SDS011;9714;51.208;4.242;2023-04-03T17:03:36;7.73;;;1.37;;
19163;SDS011;9714;51.208;4.242;2023-04-03T17:06:03;5.40;;;1.60;;
19163;SDS011;9714;51.208;4.242;2023-04-03T17:08:32;4.97;;;1.30;;
19163;SDS011;9714;51.208;4.242;2023-04-03T17:11:00;6.40;;;1.50;;
19163;SDS011;9714;51.208;4.242;2023-04-03T17:15:58;6.27;;;1.63;;
19163;SDS011;9714;51.208;4.242;2023-04-03T17:18:28;7.23;;;1.83;;
19163;SDS011;9714;51.208;4.242;2023-04-03T17:20:55;6.87;;;1.63;;
19163;SDS011;9714;51.208;4.242;2023-04-03T17:23:23;6.70;;;1.73;;
19163;SDS011;9714;51.208;4.242;2023-04-03T17:25:50;8.63;;;1.93;;
19163;SDS011;9714;51.208;4.242;2023-04-03T17:28:19;6.67;;;1.77;;
19163;SDS011;9714;51.208;4.242;2023-04-03T17:30:46;7.33;;;1.60;;
19163;SDS011;9714;51.208;4.242;2023-04-03T17:33:15;8.73;;;1.97;;
19163;SDS011;9714;51.208;4.242;2023-04-03T17:35:42;12.00;;;2.20;;
19163;SDS011;9714;51.208;4.242;2023-04-03T17:38:10;9.83;;;2.60;;
19163;SDS011;9714;51.208;4.242;2023-04-03T17:40:37;11.30;;;2.47;;
19163;SDS011;9714;51.208;4.242;2023-04-03T17:43:05;7.60;;;1.80;;
19163;SDS011;9714;51.208;4.242;2023-04-03T17:45:33;7.20;;;2.23;;
19163;SDS011;9714;51.208;4.242;2023-04-03T17:47:59;6.30;;;1.70;;
19163;SDS011;9714;51.208;4.242;2023-04-03T17:50:28;8.50;;;2.10;;
19163;SDS011;9714;51.208;4.242;2023-04-03T17:52:55;7.33;;;1.63;;
19163;SDS011;9714;51.208;4.242;2023-04-03T17:55:24;6.27;;;1.67;;
19163;SDS011;9714;51.208;4.242;2023-04-03T17:57:51;5.70;;;1.57;;
19163;SDS011;9714;51.208;4.242;2023-04-03T18:00:19;10.23;;;2.47;;
19163;SDS011;9714;51.208;4.242;2023-04-03T18:02:46;5.00;;;1.40;;
19163;SDS011;9714;51.208;4.242;2023-04-03T18:05:17;7.27;;;1.60;;
19163;SDS011;9714;51.208;4.242;2023-04-03T18:07:49;6.07;;;1.57;;
19163;SDS011;9714;51.208;4.242;2023-04-03T18:10:18;7.67;;;1.90;;
19163;SDS011;9714;51.208;4.242;2023-04-03T18:12:45;4.67;;;1.60;;
19163;SDS011;9714;51.208;4.242;2023-04-03T18:15:12;8.37;;;1.87;;
19163;SDS011;9714;51.208;4.242;2023-04-03T18:17:39;11.87;;;2.10;;
19163;SDS011;9714;51.208;4.242;2023-04-03T18:20:06;8.73;;;2.20;;
19163;SDS011;9714;51.208;4.242;2023-04-03T18:22:35;9.17;;;2.13;;
19163;SDS011;9714;51.208;4.242;2023-04-03T18:25:04;8.87;;;2.57;;
19163;SDS011;9714;51.208;4.242;2023-04-03T18:27:32;8.87;;;2.67;;
19163;SDS011;9714;51.208;4.242;2023-04-03T18:30:00;9.53;;;2.07;;
19163;SDS011;9714;51.208;4.242;2023-04-03T18:32:33;9.30;;;3.00;;
19163;SDS011;9714;51.208;4.242;2023-04-03T18:35:00;6.67;;;1.80;;
19163;SDS011;9714;51.208;4.242;2023-04-03T18:37:27;11.27;;;2.13;;
19163;SDS011;9714;51.208;4.242;2023-04-03T18:39:54;7.83;;;2.10;;
19163;SDS011;9714;51.208;4.242;2023-04-03T18:42:23;6.40;;;1.80;;
19163;SDS011;9714;51.208;4.242;2023-04-03T18:44:52;7.77;;;2.27;;
19163;SDS011;9714;51.208;4.242;2023-04-03T18:47:22;6.47;;;1.90;;
19163;SDS011;9714;51.208;4.242;2023-04-03T18:49:50;8.63;;;2.10;;
19163;SDS011;9714;51.208;4.242;2023-04-03T18:52:17;9.50;;;2.47;;
19163;SDS011;9714;51.208;4.242;2023-04-03T18:54:44;5.07;;;2.03;;
19163;SDS011;9714;51.208;4.242;2023-04-03T18:57:12;9.37;;;2.27;;
19163;SDS011;9714;51.208;4.242;2023-04-03T18:59:41;5.97;;;1.70;;
19163;SDS011;9714;51.208;4.242;2023-04-03T19:02:08;7.23;;;2.07;;
19163;SDS011;9714;51.208;4.242;2023-04-03T19:04:36;8.53;;;2.43;;
19163;SDS011;9714;51.208;4.242;2023-04-03T19:07:04;9.10;;;1.90;;
19163;SDS011;9714;51.208;4.242;2023-04-03T19:09:32;6.37;;;1.77;;
19163;SDS011;9714;51.208;4.242;2023-04-03T19:12:03;9.07;;;2.47;;
19163;SDS011;9714;51.208;4.242;2023-04-03T19:14:30;8.27;;;1.90;;
19163;SDS011;9714;51.208;4.242;2023-04-03T19:16:59;6.57;;;1.73;;
19163;SDS011;9714;51.208;4.242;2023-04-03T19:19:28;9.43;;;2.27;;
19163;SDS011;9714;51.208;4.242;2023-04-03T19:21:55;6.37;;;1.83;;
19163;SDS011;9714;51.208;4.242;2023-04-03T19:24:22;10.40;;;2.20;;
19163;SDS011;9714;51.208;4.242;2023-04-03T19:26:49;5.33;;;1.93;;
19163;SDS011;9714;51.208;4.242;2023-04-03T19:29:16;10.00;;;2.27;;
19163;SDS011;9714;51.208;4.242;2023-04-03T19:31:43;9.57;;;2.47;;